CheckWX is a tool to help pilots better visualize weather data.  It is not intended as a substitute for an official pre-flight weather briefing.

21:14:33 UTC

KIAD METAR
Washington Dulles International Airport
Washington, Virginia, USA
Current

23 mins ago

KIAD 232052Z 08006KT 2SM BR FEW007 BKN024 OVC032 03/02 A3026 RMK AO2 SFC VIS 2 1/2 RAE47 SLP250 P0001 60003 T00330017 58029
Observed
Feb-23 @ 20:52 UTC
Wind
  • 080° at 6 KTS
Visibility
2 SM
Flight Rules
IFR
Conditions
Mist
Cloud Levels
  • Few at 700' AGL
  • Broken at 2,400' AGL
  • Overcast at 3,200' AGL
Temperature
C / 37°F
Dewpoint
C / 36°F
Humidity
93%
Altimeter
30.26" Hg
Pressure
1025 hPa
Current Rain
0.01"
Previous

1 hour ago

KIAD 231959Z 05006KT 2 1/2SM -RA BR OVC030 03/01 A3030 RMK AO2 SFC VIS 3 P0000 T00330011
Observed
Feb-23 @ 19:59 UTC
Wind
  • 050° at 6 KTS
Visibility
2 1/2 SM
Flight Rules
IFR
Conditions
Light Rain, Mist
Cloud Levels
  • Overcast at 3,000' AGL
Temperature
C / 37°F
Dewpoint
C / 34°F
Humidity
87%
Altimeter
30.3" Hg
Pressure
1026.12 hPa
Current Rain
0.01"
Previous

1 hour ago

KIAD 231952Z 06005KT 3SM -RA BR OVC030 03/02 A3031 RMK AO2 SLP266 P0001 T00330017
Observed
Feb-23 @ 19:52 UTC
Wind
  • 060° at 5 KTS
Visibility
3 SM
Flight Rules
MVFR
Conditions
Light Rain, Mist
Cloud Levels
  • Overcast at 3,000' AGL
Temperature
C / 37°F
Dewpoint
C / 36°F
Humidity
93%
Altimeter
30.31" Hg
Pressure
1026.6 hPa
Current Rain
0.01"